createdAt,value
2023-01-19T00:00:47.056Z,90.55
2023-01-19T00:01:47.019Z,90.55
2023-01-19T00:02:47.024Z,90.55
2023-01-19T00:03:46.993Z,90.66
2023-01-19T00:04:46.993Z,90.66
2023-01-19T00:05:47.041Z,90.70
2023-01-19T00:06:46.958Z,90.70
2023-01-19T00:07:46.941Z,90.81
2023-01-19T00:08:46.933Z,90.91
2023-01-19T00:09:46.919Z,91.02
2023-01-19T00:10:46.965Z,91.13
2023-01-19T00:11:46.890Z,91.23
2023-01-19T00:12:46.880Z,91.34
2023-01-19T00:13:46.869Z,91.44
2023-01-19T00:14:46.861Z,91.44
2023-01-19T00:15:46.859Z,91.44
2023-01-19T00:16:46.832Z,91.49
2023-01-19T00:17:46.823Z,91.49
2023-01-19T00:18:46.809Z,91.49
2023-01-19T00:19:46.794Z,91.38
2023-01-19T00:20:46.824Z,91.27
2023-01-19T00:21:46.766Z,91.17
2023-01-19T00:22:46.766Z,91.06
2023-01-19T00:23:46.746Z,90.95
2023-01-19T00:24:46.731Z,90.89
2023-01-19T00:25:46.733Z,90.89
2023-01-19T00:26:46.705Z,90.78
2023-01-19T00:27:46.686Z,90.78
2023-01-19T00:28:46.683Z,90.78
2023-01-19T00:29:46.674Z,90.67
2023-01-19T00:30:46.673Z,90.67
2023-01-19T00:31:46.665Z,90.67
2023-01-19T00:32:46.635Z,90.67
2023-01-19T00:33:46.625Z,90.67
2023-01-19T00:34:46.603Z,90.72
2023-01-19T00:35:46.992Z,90.72
2023-01-19T00:36:46.582Z,90.72
2023-01-19T00:37:46.599Z,90.72
2023-01-19T00:38:46.572Z,90.72
2023-01-19T00:39:46.549Z,90.82
2023-01-19T00:40:46.545Z,90.93
2023-01-19T00:41:46.519Z,90.93
2023-01-19T00:42:46.512Z,90.82
2023-01-19T00:43:46.497Z,90.82
2023-01-19T00:44:46.498Z,90.72
2023-01-19T00:45:46.532Z,90.72
2023-01-19T00:46:46.465Z,90.61
2023-01-19T00:47:46.457Z,90.61
2023-01-19T00:48:46.435Z,90.61
2023-01-19T00:49:46.417Z,90.61
2023-01-19T00:50:46.427Z,90.61
2023-01-19T00:51:46.387Z,90.61
2023-01-19T00:52:46.390Z,90.61
2023-01-19T00:53:46.367Z,90.65
2023-01-19T00:54:46.365Z,90.65
2023-01-19T00:55:46.356Z,90.65
2023-01-19T00:56:46.325Z,90.65
2023-01-19T00:57:46.325Z,90.76
2023-01-19T00:58:46.315Z,90.76
2023-01-19T00:59:46.295Z,90.76
2023-01-19T01:00:46.318Z,90.76
2023-01-19T01:01:46.697Z,90.76
2023-01-19T01:02:46.364Z,90.76
2023-01-19T01:03:46.300Z,90.86
2023-01-19T01:04:46.233Z,90.86
2023-01-19T01:05:46.223Z,90.86
2023-01-19T01:06:46.219Z,90.86
2023-01-19T01:07:46.194Z,90.86
2023-01-19T01:08:46.182Z,91.01
2023-01-19T01:09:46.173Z,91.01
2023-01-19T01:10:46.171Z,91.01
2023-01-19T01:11:46.150Z,91.01
2023-01-19T01:13:20.364Z,91.12
2023-01-19T01:13:47.122Z,91.12
2023-01-19T01:14:46.111Z,91.12
2023-01-19T01:15:46.101Z,91.12
2023-01-19T01:16:46.088Z,91.12
2023-01-19T01:17:46.076Z,91.22
2023-01-19T01:18:46.069Z,91.22
2023-01-19T01:19:46.049Z,91.22
2023-01-19T01:20:46.050Z,91.22
2023-01-19T01:21:46.020Z,91.22
2023-01-19T01:22:46.021Z,91.22
2023-01-19T01:23:45.991Z,91.22
2023-01-19T01:24:45.990Z,91.27
2023-01-19T01:25:45.987Z,91.27
2023-01-19T01:26:45.966Z,91.27
2023-01-19T01:27:45.951Z,91.16
2023-01-19T01:28:45.947Z,91.16
2023-01-19T01:29:45.917Z,91.05
2023-01-19T01:30:45.922Z,91.05
2023-01-19T01:31:46.036Z,91.05
2023-01-19T01:32:45.918Z,90.94
2023-01-19T01:33:45.876Z,90.94
2023-01-19T01:34:45.877Z,90.94
2023-01-19T01:35:45.870Z,90.94
2023-01-19T01:36:45.837Z,90.94
2023-01-19T01:37:45.833Z,90.94
2023-01-19T01:38:45.812Z,91.05
2023-01-19T01:39:45.802Z,91.09
2023-01-19T01:40:45.792Z,91.09
2023-01-19T01:41:45.761Z,91.20
2023-01-19T01:42:45.855Z,91.20
2023-01-19T01:43:45.757Z,91.20
2023-01-19T01:44:45.743Z,91.20
2023-01-19T01:45:45.759Z,91.09
2023-01-19T01:46:45.715Z,91.09
2023-01-19T01:47:45.708Z,91.09
2023-01-19T01:48:45.703Z,91.20
2023-01-19T01:49:45.670Z,91.30
2023-01-19T01:50:45.678Z,91.41
2023-01-19T01:51:45.651Z,91.48
2023-01-19T01:52:56.254Z,91.48
2023-01-19T01:53:46.629Z,91.69
2023-01-19T01:54:45.616Z,91.80
2023-01-19T01:55:46.045Z,91.91
2023-01-19T01:56:45.601Z,92.12
2023-01-19T01:57:45.577Z,92.22
2023-01-19T01:58:45.572Z,92.44
2023-01-19T01:59:45.568Z,92.54
2023-01-19T02:00:45.606Z,92.65
2023-01-19T02:01:45.619Z,92.76
2023-01-19T02:02:45.516Z,92.86
2023-01-19T02:03:45.508Z,93.18
2023-01-19T02:04:45.496Z,93.35
2023-01-19T02:05:45.491Z,93.57
2023-01-19T02:06:45.464Z,93.68
2023-01-19T02:07:45.477Z,93.68
2023-01-19T02:08:45.445Z,93.78
2023-01-19T02:09:45.432Z,93.89
2023-01-19T02:10:45.440Z,93.99
2023-01-19T02:11:45.404Z,93.99
2023-01-19T02:12:45.399Z,94.10
2023-01-19T02:13:45.377Z,94.10
2023-01-19T02:14:45.376Z,94.10
2023-01-19T02:15:45.359Z,94.21
2023-01-19T02:16:45.400Z,94.21
2023-01-19T02:17:45.346Z,94.21
2023-01-19T02:18:45.327Z,94.21
2023-01-19T02:19:45.299Z,94.25
2023-01-19T02:20:45.298Z,94.25
2023-01-19T02:21:45.284Z,94.25
2023-01-19T02:22:45.268Z,94.25
2023-01-19T02:23:45.263Z,94.14
2023-01-19T02:24:45.251Z,94.14
2023-01-19T02:25:45.236Z,94.04
2023-01-19T02:26:45.217Z,94.04
2023-01-19T02:27:45.215Z,93.93
2023-01-19T02:28:45.188Z,93.93
2023-01-19T02:29:45.176Z,93.82
2023-01-19T02:30:45.229Z,93.72
2023-01-19T02:31:45.153Z,93.72
2023-01-19T02:32:45.143Z,93.72
2023-01-19T02:33:45.138Z,93.72
2023-01-19T02:34:45.118Z,93.65
2023-01-19T02:35:45.115Z,93.65
2023-01-19T02:36:45.094Z,93.65
2023-01-19T02:37:45.084Z,93.54
2023-01-19T02:38:45.075Z,93.44
2023-01-19T02:39:45.055Z,93.44
2023-01-19T02:40:45.064Z,93.44
2023-01-19T02:41:45.022Z,93.54
2023-01-19T02:42:45.011Z,93.54
2023-01-19T02:43:45.008Z,93.54
2023-01-19T02:44:44.996Z,93.44
2023-01-19T02:45:45.007Z,93.44
2023-01-19T02:46:44.984Z,93.33
2023-01-19T02:47:44.950Z,93.33
2023-01-19T02:48:44.955Z,93.23
2023-01-19T02:49:44.942Z,93.12
2023-01-19T02:50:44.929Z,93.01
2023-01-19T02:51:44.897Z,92.91
2023-01-19T02:52:44.899Z,92.80
2023-01-19T02:53:44.877Z,92.58
2023-01-19T02:54:44.878Z,92.48
2023-01-19T02:55:44.863Z,92.48
2023-01-19T02:56:44.857Z,92.69
2023-01-19T02:57:44.835Z,93.01
2023-01-19T02:58:44.822Z,93.40
2023-01-19T02:59:44.814Z,93.82
2023-01-19T03:00:44.799Z,94.46
2023-01-19T03:01:44.984Z,95.00
2023-01-19T03:02:44.871Z,95.28
2023-01-19T03:03:44.790Z,95.59
2023-01-19T03:04:44.744Z,95.59
2023-01-19T03:05:44.735Z,95.81
2023-01-19T03:06:44.781Z,96.02
2023-01-19T03:07:44.721Z,96.23
2023-01-19T03:08:44.717Z,96.30
2023-01-19T03:09:44.683Z,96.51
2023-01-19T03:10:44.675Z,96.61
2023-01-19T03:11:44.690Z,96.83
2023-01-19T03:12:44.646Z,96.83
2023-01-19T03:13:44.631Z,96.94
2023-01-19T03:14:44.627Z,96.94
2023-01-19T03:15:44.664Z,97.04
2023-01-19T03:16:44.682Z,97.15
2023-01-19T03:17:45.712Z,97.25
2023-01-19T03:18:44.961Z,97.36
2023-01-19T03:19:44.575Z,97.36
2023-01-19T03:20:44.539Z,97.42
2023-01-19T03:21:44.549Z,97.64
2023-01-19T03:22:44.518Z,97.85
2023-01-19T03:23:44.509Z,97.96
2023-01-19T03:24:44.510Z,97.96
2023-01-19T03:25:44.502Z,98.07
2023-01-19T03:26:44.490Z,98.17
2023-01-19T03:27:44.455Z,98.28
2023-01-19T03:28:44.451Z,98.38
2023-01-19T03:29:44.446Z,98.38
2023-01-19T03:30:44.450Z,98.44
2023-01-19T03:31:44.432Z,98.44
2023-01-19T03:32:44.396Z,98.55
2023-01-19T03:33:44.383Z,98.55
2023-01-19T03:34:44.376Z,98.66
2023-01-19T03:35:44.363Z,98.77
2023-01-19T03:36:44.353Z,98.83
2023-01-19T03:37:44.337Z,98.83
2023-01-19T03:38:44.316Z,99.04
2023-01-19T03:39:44.306Z,99.15
2023-01-19T03:40:44.293Z,99.21
2023-01-19T03:41:44.310Z,99.32
2023-01-19T03:42:44.270Z,99.42
2023-01-19T03:43:44.261Z,99.52
2023-01-19T03:44:44.267Z,99.52
2023-01-19T03:45:44.235Z,99.52
2023-01-19T03:46:44.230Z,99.58
2023-01-19T03:47:44.210Z,99.58
2023-01-19T03:48:44.202Z,99.48
2023-01-19T03:49:44.186Z,99.48
2023-01-19T03:50:44.169Z,99.52
2023-01-19T03:51:44.181Z,99.52
2023-01-19T03:52:44.139Z,99.48
2023-01-19T03:53:44.142Z,99.58
2023-01-19T03:54:44.127Z,99.58
2023-01-19T03:55:44.109Z,99.58
2023-01-19T03:56:44.103Z,99.58
2023-01-19T03:57:44.087Z,99.58
2023-01-19T03:58:44.065Z,99.58
2023-01-19T03:59:44.057Z,99.48
2023-01-19T04:00:44.063Z,99.48
2023-01-19T04:01:44.112Z,99.38
2023-01-19T04:02:44.115Z,99.38
2023-01-19T04:03:44.010Z,99.38
2023-01-19T04:04:43.995Z,99.38
2023-01-19T04:05:43.995Z,99.38
2023-01-19T04:06:43.985Z,99.38
2023-01-19T04:07:43.993Z,99.38
2023-01-19T04:08:43.950Z,99.27
2023-01-19T04:09:43.934Z,99.27
2023-01-19T04:10:43.931Z,99.27
2023-01-19T04:11:43.922Z,99.27
2023-01-19T04:12:43.902Z,99.38
2023-01-19T04:13:43.890Z,99.38
2023-01-19T04:14:43.870Z,99.38
2023-01-19T04:15:43.884Z,99.38
2023-01-19T04:16:43.857Z,99.27
2023-01-19T04:17:43.834Z,99.38
2023-01-19T04:18:43.820Z,99.38
2023-01-19T04:19:43.816Z,99.38
2023-01-19T04:20:43.789Z,99.33
2023-01-19T04:21:43.790Z,99.33
2023-01-19T04:22:43.768Z,99.33
2023-01-19T04:23:43.773Z,99.33
2023-01-19T04:24:43.756Z,99.33
2023-01-19T04:25:43.736Z,99.33
2023-01-19T04:26:43.741Z,99.33
2023-01-19T04:27:43.722Z,99.33
2023-01-19T04:28:43.686Z,99.33
2023-01-19T04:29:43.677Z,99.44
2023-01-19T04:30:43.674Z,99.50
2023-01-19T04:31:43.679Z,99.50
2023-01-19T04:32:43.650Z,99.50
2023-01-19T04:33:43.645Z,99.60
2023-01-19T04:34:43.638Z,99.50
2023-01-19T04:35:43.616Z,99.60
2023-01-19T04:36:43.619Z,99.71
2023-01-19T04:37:43.584Z,99.71
2023-01-19T04:38:43.564Z,99.77
2023-01-19T04:39:43.560Z,99.77
2023-01-19T04:40:43.548Z,99.77
2023-01-19T04:41:43.556Z,99.77
2023-01-19T04:42:43.525Z,99.77
2023-01-19T04:43:43.509Z,99.66
2023-01-19T04:44:43.492Z,99.66
2023-01-19T04:45:43.485Z,99.66
2023-01-19T04:46:43.547Z,99.66
2023-01-19T04:47:43.465Z,99.56
2023-01-19T04:48:43.458Z,99.56
2023-01-19T04:49:43.442Z,99.56
2023-01-19T04:50:43.429Z,99.56
2023-01-19T04:51:43.425Z,99.46
2023-01-19T04:52:43.406Z,99.46
2023-01-19T04:53:43.409Z,99.35
2023-01-19T04:54:43.381Z,99.35
2023-01-19T04:55:43.357Z,99.35
2023-01-19T04:56:43.375Z,99.24
2023-01-19T04:57:43.337Z,99.24
2023-01-19T04:58:43.314Z,99.24
2023-01-19T04:59:43.307Z,99.24
2023-01-19T05:00:43.303Z,99.24
2023-01-19T05:01:43.367Z,99.24
2023-01-19T05:02:43.308Z,99.24
2023-01-19T05:03:43.268Z,99.13
2023-01-19T05:04:43.264Z,99.13
2023-01-19T05:05:43.244Z,99.13
2023-01-19T05:06:43.237Z,99.13
2023-01-19T05:07:43.221Z,99.13
2023-01-19T05:08:45.283Z,99.13
2023-01-19T05:09:43.189Z,99.13
2023-01-19T05:10:43.172Z,99.13
2023-01-19T05:11:43.178Z,99.13
2023-01-19T05:12:43.146Z,99.13
2023-01-19T05:13:43.141Z,99.09
2023-01-19T05:14:43.146Z,99.19
2023-01-19T05:15:43.115Z,99.30
2023-01-19T05:16:43.103Z,99.52
2023-01-19T05:17:43.095Z,99.62
2023-01-19T05:18:43.072Z,99.58
2023-01-19T05:19:43.089Z,99.58
2023-01-19T05:20:43.068Z,99.68
2023-01-19T05:21:43.053Z,99.68
2023-01-19T05:22:43.028Z,99.79
2023-01-19T05:23:43.008Z,99.79
2023-01-19T05:24:43.003Z,99.68
2023-01-19T05:25:42.989Z,99.68
2023-01-19T05:26:42.980Z,99.58
2023-01-19T05:27:42.967Z,99.58
2023-01-19T05:28:42.958Z,99.47
2023-01-19T05:29:42.966Z,99.47
2023-01-19T05:30:43.025Z,99.47
2023-01-19T05:31:42.987Z,99.47
2023-01-19T05:32:42.908Z,99.37
2023-01-19T05:33:42.888Z,99.37
2023-01-19T05:34:42.876Z,99.37
2023-01-19T05:35:42.867Z,99.26
2023-01-19T05:36:42.869Z,99.26
2023-01-19T05:37:42.845Z,99.21
2023-01-19T05:38:42.822Z,99.11
2023-01-19T05:39:42.814Z,99.11
2023-01-19T05:40:42.793Z,99.21
2023-01-19T05:41:42.805Z,99.21
2023-01-19T05:42:42.774Z,99.21
2023-01-19T05:43:42.766Z,99.11
2023-01-19T05:44:43.230Z,99.11
2023-01-19T05:45:42.745Z,99.00
2023-01-19T05:46:42.821Z,99.00
2023-01-19T05:47:42.722Z,98.90
2023-01-19T05:48:42.702Z,98.90
2023-01-19T05:49:42.696Z,98.79
2023-01-19T05:50:42.671Z,98.79
2023-01-19T05:51:42.681Z,98.79
2023-01-19T05:52:42.800Z,98.79
2023-01-19T05:53:42.642Z,98.79
2023-01-19T05:54:42.634Z,98.79
2023-01-19T05:55:42.620Z,98.79
2023-01-19T05:56:42.613Z,98.79
2023-01-19T05:57:42.588Z,98.79
2023-01-19T05:58:42.581Z,98.90
2023-01-19T05:59:42.566Z,98.90
2023-01-19T06:00:42.546Z,99.00
2023-01-19T06:01:42.562Z,99.00
2023-01-19T06:02:42.571Z,99.00
2023-01-19T06:03:42.527Z,99.00
2023-01-19T06:04:42.503Z,98.90
2023-01-19T06:05:42.486Z,98.79
2023-01-19T06:06:42.497Z,98.79
2023-01-19T06:07:42.470Z,98.79
2023-01-19T06:08:42.888Z,98.79
2023-01-19T06:09:42.445Z,98.79
2023-01-19T06:10:42.434Z,98.79
2023-01-19T06:11:42.424Z,98.68
2023-01-19T06:12:42.395Z,98.68
2023-01-19T06:13:42.399Z,98.68
2023-01-19T06:14:42.375Z,98.68
2023-01-19T06:15:42.378Z,98.68
2023-01-19T06:16:42.407Z,98.74
2023-01-19T06:17:42.347Z,98.85
2023-01-19T06:18:42.325Z,98.85
2023-01-19T06:19:42.321Z,98.85
2023-01-19T06:20:42.301Z,98.85
2023-01-19T06:21:42.310Z,98.74
2023-01-19T06:22:42.285Z,98.79
2023-01-19T06:23:42.264Z,98.68
2023-01-19T06:24:42.248Z,98.58
2023-01-19T06:25:42.239Z,98.47
2023-01-19T06:26:42.241Z,98.47
2023-01-19T06:27:42.221Z,98.36
2023-01-19T06:28:42.199Z,98.26
2023-01-19T06:29:42.189Z,98.16
2023-01-19T06:30:42.207Z,98.09
2023-01-19T06:31:42.226Z,97.99
2023-01-19T06:32:42.169Z,97.88
2023-01-19T06:33:42.145Z,97.77
2023-01-19T06:34:42.128Z,97.67
2023-01-19T06:35:42.117Z,97.56
2023-01-19T06:36:42.105Z,97.56
2023-01-19T06:37:42.099Z,97.45
2023-01-19T06:38:42.076Z,97.45
2023-01-19T06:39:42.068Z,97.35
2023-01-19T06:40:42.055Z,97.24
2023-01-19T06:41:42.054Z,97.24
2023-01-19T06:42:42.152Z,97.14
2023-01-19T06:43:42.023Z,97.14
2023-01-19T06:44:42.013Z,97.08
2023-01-19T06:45:42.918Z,96.97
2023-01-19T06:46:41.985Z,96.86
2023-01-19T06:47:41.961Z,96.76
2023-01-19T06:48:41.952Z,96.65
2023-01-19T06:49:41.954Z,96.55
2023-01-19T06:50:41.929Z,96.44
2023-01-19T06:51:41.937Z,96.23
2023-01-19T06:52:41.905Z,96.12
2023-01-19T06:53:41.889Z,95.91
2023-01-19T06:54:41.881Z,95.91
2023-01-19T06:55:41.867Z,95.80
2023-01-19T06:56:41.858Z,95.70
2023-01-19T06:57:41.842Z,95.70
2023-01-19T06:58:41.829Z,95.59
2023-01-19T06:59:41.837Z,95.63
2023-01-19T07:00:41.817Z,95.63
2023-01-19T07:01:41.890Z,95.42
2023-01-19T07:02:41.865Z,95.31
2023-01-19T07:03:41.770Z,95.10
2023-01-19T07:04:41.759Z,95.15
2023-01-19T07:05:41.744Z,95.04
2023-01-19T07:06:41.728Z,94.93
2023-01-19T07:07:41.775Z,94.72
2023-01-19T07:08:41.698Z,94.72
2023-01-19T07:09:41.696Z,94.65
2023-01-19T07:11:23.118Z,94.65
2023-01-19T07:11:42.674Z,94.55
2023-01-19T07:12:41.752Z,94.55
2023-01-19T07:13:41.651Z,94.45
2023-01-19T07:14:41.647Z,94.45
2023-01-19T07:15:41.613Z,94.34
2023-01-19T07:16:41.689Z,94.34
2023-01-19T07:17:41.591Z,94.23
2023-01-19T07:18:41.601Z,94.12
2023-01-19T07:19:41.559Z,94.06
2023-01-19T07:20:41.551Z,93.96
2023-01-19T07:21:41.542Z,93.74
2023-01-19T07:22:41.542Z,93.63
2023-01-19T07:23:41.517Z,93.63
2023-01-19T07:24:41.540Z,93.53
2023-01-19T07:25:41.481Z,93.53
2023-01-19T07:26:41.493Z,93.53
2023-01-19T07:27:41.462Z,93.42
2023-01-19T07:28:41.459Z,93.42
2023-01-19T07:29:41.442Z,93.42
2023-01-19T07:30:41.517Z,93.32
2023-01-19T07:31:41.524Z,93.32
2023-01-19T07:32:41.409Z,93.32
2023-01-19T07:33:41.388Z,93.38
2023-01-19T07:34:41.376Z,93.49
2023-01-19T07:35:41.357Z,93.59
2023-01-19T07:36:41.367Z,93.70
2023-01-19T07:37:41.351Z,93.80
2023-01-19T07:38:41.327Z,93.80
2023-01-19T07:39:41.318Z,93.91
2023-01-19T07:40:41.331Z,93.80
2023-01-19T07:41:41.295Z,93.80
2023-01-19T07:42:41.275Z,93.80
2023-01-19T07:43:41.270Z,93.91
2023-01-19T07:44:41.305Z,93.87
2023-01-19T07:45:41.338Z,93.98
2023-01-19T07:46:41.258Z,94.09
2023-01-19T07:47:41.231Z,94.19
2023-01-19T07:48:41.233Z,94.19
2023-01-19T07:49:41.193Z,94.19
2023-01-19T07:50:41.180Z,94.19
2023-01-19T07:51:41.177Z,94.29
2023-01-19T07:52:41.154Z,94.40
2023-01-19T07:53:41.153Z,94.51
2023-01-19T07:54:41.376Z,94.62
2023-01-19T07:55:41.112Z,94.72
2023-01-19T07:56:41.111Z,94.68
2023-01-19T07:57:41.109Z,94.78
2023-01-19T07:58:41.078Z,94.89
2023-01-19T07:59:41.062Z,95.00
2023-01-19T08:00:41.058Z,95.06
2023-01-19T08:01:41.173Z,95.59
2023-01-19T08:02:41.109Z,96.08
2023-01-19T08:03:41.009Z,96.25
2023-01-19T08:04:41.051Z,96.35
2023-01-19T08:05:40.991Z,96.31
2023-01-19T08:06:40.999Z,96.20
2023-01-19T08:07:41.189Z,96.20
2023-01-19T08:08:40.974Z,96.42
2023-01-19T08:09:40.954Z,96.52
2023-01-19T08:10:40.926Z,96.62
2023-01-19T08:11:40.916Z,96.84
2023-01-19T08:12:40.904Z,96.90
2023-01-19T08:13:40.903Z,97.01
2023-01-19T08:14:40.875Z,97.22
2023-01-19T08:15:40.899Z,97.43
2023-01-19T08:16:40.869Z,97.49
2023-01-19T08:17:40.846Z,97.91
2023-01-19T08:18:40.845Z,98.19
2023-01-19T08:19:41.634Z,98.30
2023-01-19T08:20:40.810Z,98.40
2023-01-19T08:21:40.817Z,98.68
2023-01-19T08:22:40.782Z,98.88
2023-01-19T08:23:40.836Z,99.05
2023-01-19T08:24:40.756Z,99.16
2023-01-19T08:25:40.749Z,99.11
2023-01-19T08:26:40.750Z,99.22
2023-01-19T08:27:40.710Z,99.28
2023-01-19T08:28:40.700Z,99.28
2023-01-19T08:29:40.691Z,99.24
2023-01-19T08:30:40.834Z,99.34
2023-01-19T08:31:40.709Z,99.19
2023-01-19T08:32:40.657Z,99.19
2023-01-19T08:33:40.639Z,99.04
2023-01-19T08:34:40.629Z,98.93
2023-01-19T08:35:40.611Z,98.83
2023-01-19T08:36:40.611Z,98.72
2023-01-19T08:37:40.578Z,98.68
2023-01-19T08:38:40.583Z,98.57
2023-01-19T08:39:40.557Z,98.53
2023-01-19T08:40:40.567Z,98.49
2023-01-19T08:41:40.545Z,98.49
2023-01-19T08:42:40.527Z,98.23
2023-01-19T08:43:40.514Z,97.97
2023-01-19T08:44:46.803Z,97.87
2023-01-19T08:45:41.484Z,97.76
2023-01-19T08:46:40.522Z,97.72
2023-01-19T08:47:40.539Z,97.61
2023-01-19T08:48:40.453Z,97.47
2023-01-19T08:49:40.435Z,97.36
2023-01-19T08:50:40.430Z,97.15
2023-01-19T08:51:40.416Z,96.89
2023-01-19T08:52:40.410Z,96.69
2023-01-19T08:53:40.382Z,96.58
2023-01-19T08:54:40.388Z,96.58
2023-01-19T08:55:40.372Z,96.47
2023-01-19T08:56:40.366Z,96.47
2023-01-19T08:57:40.321Z,96.22
2023-01-19T08:58:40.379Z,96.01
2023-01-19T08:59:40.301Z,95.90
2023-01-19T09:00:40.306Z,95.86
2023-01-19T09:01:40.497Z,95.65
2023-01-19T09:02:40.352Z,95.50
2023-01-19T09:03:40.249Z,95.40
2023-01-19T09:04:40.251Z,95.25
2023-01-19T09:05:40.246Z,94.89
2023-01-19T09:06:40.242Z,94.58
2023-01-19T09:07:40.211Z,93.59
2023-01-19T09:08:40.874Z,92.96
2023-01-19T09:09:40.179Z,92.86
2023-01-19T09:10:40.184Z,92.61
2023-01-19T09:11:40.167Z,92.61
2023-01-19T09:12:40.153Z,92.71
2023-01-19T09:13:41.211Z,92.50
2023-01-19T09:14:40.123Z,92.57
2023-01-19T09:15:40.136Z,92.04
2023-01-19T09:16:40.096Z,91.83
2023-01-19T09:17:40.074Z,91.37
2023-01-19T09:18:40.071Z,90.81
2023-01-19T09:19:40.053Z,89.68
2023-01-19T09:20:40.035Z,88.74
2023-01-19T09:21:40.035Z,88.28
2023-01-19T09:22:40.121Z,87.45
2023-01-19T09:23:39.993Z,86.46
2023-01-19T09:24:40.085Z,86.15
2023-01-19T09:25:40.279Z,85.94
2023-01-19T09:26:39.974Z,85.65
2023-01-19T09:27:39.947Z,85.30
2023-01-19T09:28:39.938Z,84.84
2023-01-19T09:29:39.917Z,84.43
2023-01-19T09:30:39.953Z,83.49
2023-01-19T09:31:40.014Z,83.35
2023-01-19T09:32:39.881Z,82.17
2023-01-19T09:33:39.863Z,80.46
2023-01-19T09:34:39.863Z,80.01
2023-01-19T09:35:39.861Z,79.72
2023-01-19T09:36:39.841Z,78.65
2023-01-19T09:37:39.813Z,78.27
2023-01-19T09:38:39.852Z,77.61
2023-01-19T09:39:39.828Z,77.23
2023-01-19T09:40:41.368Z,75.95
2023-01-19T09:41:39.772Z,72.91
2023-01-19T09:42:39.758Z,73.43
2023-01-19T09:43:39.735Z,71.94
2023-01-19T09:44:39.721Z,72.22
2023-01-19T09:45:39.702Z,72.74
2023-01-19T09:46:39.823Z,70.98
2023-01-19T09:47:39.724Z,71.81
2023-01-19T09:48:39.678Z,73.25
2023-01-19T09:49:39.658Z,72.60
2023-01-19T09:50:39.663Z,69.19
2023-01-19T09:51:39.658Z,68.02
2023-01-19T09:52:39.629Z,68.92
2023-01-19T09:53:39.598Z,70.43
2023-01-19T09:54:39.600Z,70.61
2023-01-19T09:55:39.580Z,71.41
2023-01-19T09:56:39.594Z,69.10
2023-01-19T09:57:39.565Z,68.38
2023-01-19T09:58:39.539Z,68.35
2023-01-19T09:59:39.533Z,67.39
2023-01-19T10:00:39.546Z,67.60
2023-01-19T10:01:39.535Z,66.64
2023-01-19T10:02:39.524Z,65.09
2023-01-19T10:03:39.506Z,64.54
2023-01-19T10:04:39.483Z,63.00
2023-01-19T10:05:39.460Z,63.49
2023-01-19T10:06:39.448Z,63.90
2023-01-19T10:07:39.424Z,63.76
2023-01-19T10:08:39.420Z,63.67
2023-01-19T10:09:39.394Z,63.12
2023-01-19T10:10:39.407Z,59.42
2023-01-19T10:11:51.887Z,61.07
2023-01-19T10:12:40.383Z,62.40
2023-01-19T10:13:39.341Z,60.86
2023-01-19T10:14:39.347Z,60.65
2023-01-19T10:15:39.319Z,61.58
2023-01-19T10:16:39.326Z,61.14
2023-01-19T10:17:39.293Z,60.52
2023-01-19T10:18:39.283Z,57.75
2023-01-19T10:19:39.474Z,59.80
2023-01-19T10:20:39.273Z,59.59
2023-01-19T10:21:39.253Z,59.29
2023-01-19T10:22:39.325Z,59.26
2023-01-19T10:23:39.251Z,58.85
2023-01-19T10:24:39.207Z,59.57
2023-01-19T10:25:39.230Z,60.19
2023-01-19T10:26:39.204Z,58.44
2023-01-19T10:27:39.164Z,57.41
2023-01-19T10:28:39.157Z,58.44
2023-01-19T10:29:39.148Z,58.54
2023-01-19T10:30:39.328Z,58.44
2023-01-19T10:31:39.230Z,58.64
2023-01-19T10:32:39.201Z,57.23
2023-01-19T10:33:39.076Z,59.06
2023-01-19T10:34:39.104Z,58.34
2023-01-19T10:35:39.089Z,57.82
2023-01-19T10:36:39.061Z,58.36
2023-01-19T10:37:39.027Z,57.44
2023-01-19T10:38:39.013Z,56.23
2023-01-19T10:39:39.002Z,58.08
2023-01-19T10:40:39.003Z,57.98
2023-01-19T10:41:39.024Z,54.92
2023-01-19T10:42:39.152Z,57.31
2023-01-19T10:43:39.008Z,57.93
2023-01-19T10:44:38.943Z,58.06
2023-01-19T10:45:38.989Z,57.86
2023-01-19T10:46:38.936Z,58.68
2023-01-19T10:47:39.045Z,57.86
2023-01-19T10:48:38.914Z,57.82
2023-01-19T10:49:38.909Z,57.93
2023-01-19T10:50:38.858Z,57.14
2023-01-19T10:51:38.863Z,58.06
2023-01-19T10:52:38.915Z,57.75
2023-01-19T10:53:38.817Z,57.16
2023-01-19T10:54:38.801Z,58.81
2023-01-19T10:55:38.803Z,59.42
2023-01-19T10:56:38.879Z,59.94
2023-01-19T10:57:38.823Z,57.88
2023-01-19T10:58:38.739Z,59.74
2023-01-19T10:59:38.737Z,58.91
2023-01-19T11:00:38.905Z,58.60
2023-01-19T11:01:38.819Z,59.14
2023-01-19T11:02:38.853Z,58.11
2023-01-19T11:03:38.680Z,58.94
2023-01-19T11:04:38.707Z,58.55
2023-01-19T11:05:38.660Z,58.97
2023-01-19T11:06:38.647Z,59.89
2023-01-19T11:07:38.624Z,60.10
2023-01-19T11:08:38.615Z,58.97
2023-01-19T11:09:38.603Z,59.92
2023-01-19T11:10:38.610Z,59.72
2023-01-19T11:11:38.579Z,61.05
2023-01-19T11:12:38.568Z,60.44
2023-01-19T11:13:38.538Z,60.95
2023-01-19T11:14:38.533Z,60.64
2023-01-19T11:15:38.517Z,60.54
2023-01-19T11:16:38.557Z,60.16
2023-01-19T11:17:38.503Z,60.26
2023-01-19T11:18:38.487Z,61.73
2023-01-19T11:19:38.469Z,60.91
2023-01-19T11:20:38.448Z,61.94
2023-01-19T11:21:38.459Z,61.11
2023-01-19T11:22:38.433Z,61.79
2023-01-19T11:23:38.424Z,62.30
2023-01-19T11:24:38.425Z,62.62
2023-01-19T11:25:38.392Z,63.34
2023-01-19T11:26:38.394Z,63.65
2023-01-19T11:27:38.374Z,62.85
2023-01-19T11:28:38.351Z,62.95
2023-01-19T11:29:38.338Z,63.26
2023-01-19T11:30:38.327Z,63.89
2023-01-19T11:31:38.353Z,64.51
2023-01-19T11:32:38.309Z,64.30
2023-01-19T11:33:38.347Z,63.89
2023-01-19T11:34:38.264Z,63.78
2023-01-19T11:35:38.282Z,62.75
2023-01-19T11:36:38.257Z,63.71
2023-01-19T11:37:38.224Z,64.43
2023-01-19T11:38:38.217Z,63.50
2023-01-19T11:39:38.202Z,64.12
2023-01-19T11:40:38.183Z,63.71
2023-01-19T11:41:38.203Z,63.92
2023-01-19T11:42:38.156Z,63.71
2023-01-19T11:43:48.730Z,64.02
2023-01-19T11:44:39.138Z,64.12
2023-01-19T11:45:38.166Z,64.23
2023-01-19T11:46:38.121Z,62.60
2023-01-19T11:47:38.101Z,64.15
2023-01-19T11:48:38.086Z,64.36
2023-01-19T11:49:38.069Z,64.56
2023-01-19T11:50:38.052Z,63.35
2023-01-19T11:51:38.066Z,65.42
2023-01-19T11:52:38.031Z,64.90
2023-01-19T11:53:38.022Z,65.45
2023-01-19T11:54:37.997Z,65.35
2023-01-19T11:55:37.998Z,65.87
2023-01-19T11:56:37.987Z,66.87
2023-01-19T11:57:37.961Z,66.25
2023-01-19T11:58:37.952Z,66.05
2023-01-19T11:59:37.952Z,66.05
2023-01-19T12:00:37.954Z,66.25
2023-01-19T12:01:37.927Z,65.94
2023-01-19T12:02:37.890Z,65.73
2023-01-19T12:03:37.908Z,65.53
2023-01-19T12:04:37.878Z,65.63
2023-01-19T12:05:37.860Z,66.35
2023-01-19T12:06:37.856Z,66.05
2023-01-19T12:07:37.854Z,65.25
2023-01-19T12:08:37.819Z,65.66
2023-01-19T12:09:37.799Z,65.45
2023-01-19T12:10:37.790Z,66.00
2023-01-19T12:11:37.801Z,67.35
2023-01-19T12:12:37.759Z,66.93
2023-01-19T12:13:37.753Z,66.41
2023-01-19T12:14:37.745Z,66.93
2023-01-19T12:15:37.730Z,67.24
2023-01-19T12:16:37.791Z,67.76
2023-01-19T12:17:37.740Z,67.66
2023-01-19T12:18:37.704Z,67.24
2023-01-19T12:19:37.667Z,67.45
2023-01-19T12:20:37.663Z,67.55
2023-01-19T12:21:37.673Z,66.75
2023-01-19T12:22:37.636Z,66.96
2023-01-19T12:23:37.616Z,68.00
2023-01-19T12:24:37.659Z,68.00
2023-01-19T12:25:37.607Z,67.51
2023-01-19T12:26:37.594Z,67.51
2023-01-19T12:27:37.573Z,68.34
2023-01-19T12:28:37.569Z,68.96
2023-01-19T12:29:37.540Z,69.17
2023-01-19T12:30:37.770Z,69.48
2023-01-19T12:31:37.634Z,69.10
2023-01-19T12:32:37.520Z,69.31
2023-01-19T12:33:37.492Z,69.00
2023-01-19T12:34:37.487Z,68.79
2023-01-19T12:35:37.476Z,68.38
2023-01-19T12:36:37.454Z,68.82
2023-01-19T12:37:37.439Z,69.76
2023-01-19T12:38:37.424Z,69.76
2023-01-19T12:39:37.407Z,69.96
2023-01-19T12:40:37.386Z,70.28
2023-01-19T12:41:37.386Z,70.17
2023-01-19T12:42:37.365Z,70.48
2023-01-19T12:43:37.355Z,69.76
2023-01-19T12:44:37.339Z,69.55
2023-01-19T12:45:37.326Z,69.58
2023-01-19T12:46:37.316Z,69.68
2023-01-19T12:47:37.306Z,70.31
2023-01-19T12:48:37.282Z,70.75
2023-01-19T12:49:37.267Z,70.03
2023-01-19T12:50:37.257Z,70.68
2023-01-19T12:51:37.243Z,71.62
2023-01-19T12:52:37.233Z,71.83